Timeline UpdatesTrip UpdatesNews PostsPvt PostsTravel TipsAdmin PostsConv PostsFollowed PostsChat RequestsBlog PostsPNR Posts

Disclaimer
Search
 
 
Wed Apr 16, 2014 18:37:43 ISTHomeTrainsΣChainsAtlasPNRForumGalleryNewsFAQTripsMembersLoginFeedback
No Recent News for this Train
Other Trains in the News **new
Latest...
.
Fri Dec 13, 2013 (03:40PM)
⇐ Return Journey: Train# 12833

12834/Howrah Ahmedabad SF Express

Jul 01 2013 (4:29PM)
Change Departure Station:
Change Arrival Station:
Post a Train Travel TipPost a Train Travel Tip **new
Post a Comment/Question/Picture/VideoPost a Comment/Question/Picture/Video
Pantry/Catering
✓ Pantry Car Avbl
✓ Catering Avbl
RSA - Rake Sharing
Rake/Coach Composition
LOCO(SRC WAP 4E)-SLR-GEN-S1-S2-S3-S4-S5-S6-S7-S8-S9-S10-S11-S12-PC-S13-B1-B2-A1-A2-GEN-SLR
Loco
Loco: SRC WAP 4 ... Entry# 289462
News    PNR    Forum    Time-Table    Availability    Fare Chart    Map    Arr/Dep History    Trips    Gallery    ΣChains    X/O    Timeline    
Travel Time: 3h 48m    5 halts    Distance: 230 km    Avg Speed: 60 km/hr
Type: SuperFast
Zone: SER/South Eastern
Departs @ 09:12 (Avg 16m late)
Platform# 2
SMTWTFS
Surat/ST 
Arrives @ 13:00 (Avg 20m late)
Platform# 6
SMTWTFS
Ahmedabad Junction/ADI 

5 halts. 46 intermediate Stations between Surat and Ahmedabad Junction

Show ALL intermediate Stations  Show Old Time-Table

#CodeStation NameX/OArrivesAvgDepartsAvgHaltPFDay#KmSpeedElevZoneAddress
1HWHKolkata Howrah Junction (23)  -23:55+3221-1858.56210mERHowrah 711101, West Bengal
2MCAMecheda (6)  00:51+900:52+161m--2-1800.33410mSERdist - purba Medinipur, West Bengal
3PKUPanskura Junction (6)  01:14+701:15+81m--2-1787.9599mSERPanskura, West Bengal
4KGPKharagpur Junction (10)  02:00+302:05+45m32-1743.57742mSERKharagpur, West Bengal
5TATATatanagar Junction (5)XO  03:50+1703:55+175m--2-1608.468164mSER91-657-2423026, Jharkhand
6CKPChakradharpur (3)  04:50+1704:57+187m12-1546.278235mSERChakradharpur (West Singhbhum), Jharkhand
7ROURourkela Junction (5)X  06:15+2406:30+2415m32-1445.162198mSERRourkela, Odisha
8GPRaj Gangpur (3)  06:59+2507:00+261m12-1415.372237mSERRaj Ganpur, Odisha
9BMBBamra (3)  07:29+2107:30+211m--2-1380.758259mSERBamra PH : 06642-229268, Odisha
10JSGJharsuguda Junction (5)X  08:08+1408:10+162m--2-1344.178236mSERJharsuguda, Odisha
11BRJNBrajrajnagar  08:19+2608:20+271m--2-1332.559212mSECRBrajrajnagar, Odisha
12BPHBelpahar  08:29+2708:30+291m--2-1323.685235mSECRBelpahar, Odisha
13RIGRaigarh (3)  09:06+2909:11+295m--2-1272.589220mSECRRaigarh, Chhattisgarh
14KHSKharsia  09:34+3909:35+401m--2-1238.586259mSECRNational Highway 200, Chhattisgarh
15BUABaradwarX  09:56+4609:57+471m--2-1208.355256mSECRJanjgir-Champa, Chhattisgarh
16CPHChampa Junction (3)X  10:14+4810:19+465m32-1192.865264mSECRNational Highway 200 (07819-245767), Chhattisgarh
17NIANailaX  10:29+4710:30+481m--2-1181.969273mSECRJanjgir, Chhattisgarh
18AKTAkaltara (4)X  10:43+4710:44+481m--2-1167.029284mSECRDist. Janjgir Champa, Chhattisgarh
19BSPBilaspur Junction (8)X  11:40+2111:55+2815m22-1139.775271mSECRBilaspur, Chhattisgarh
20BYTBhatapara (4)X  12:32+2912:33+291m22-1093.582270mSECRBanjari Road, Chhattisgarh
21TLDTilda (3)X  12:52+2912:53+291m--2-1067.555291mSECRBanjari Rd, Chhattisgarh
22RRaipur Junction (6)X  13:35+3013:45+2910m52-1029.376297mSECRRaipur, Chhattisgarh
23BPHBBhilai Power House (3)XO  14:07+1614:08+171m12-1001.317312mSECRBhilai, Chhattisgarh
24DURGDurg Junction (6)X  14:40+1614:45+175m42-992.487299mSECRPh: 91-788-2322059, Chhattisgarh
25RJNRaj Nandgaon (3)  15:06+2315:08+232m--2-961.982313mSECRRajnandgaon, Chhattisgarh
26DGGDongargarh (2)  15:31+2615:32+281m12-930.474353mSECRDongargarh, Chhattisgarh
27AGNAmgaon (2)X  16:13+3216:14+331m--2-879.947317mSECRGondia, Maharashtra
28GGondia Junction (7)X  16:43+2416:48+245m22-857.188316mSECRGondia 441601, Maharashtra
29TROTirora (3)  17:08+2817:09+291m--2-827.868282mSECRDist Gondiya, Maharashtra
30TMRTumsar Road (3)  17:27+2717:28+281m--2-807.467267mSECRBhandara, Maharashtra
31BRDBhandara Road (2)X  17:44+2617:45+271m22-789.590266mSECRState Highway 252, Maharashtra
32KPKamptee (3)X  18:17+2718:18+271m--2-741.620290mSECRMH 441001, Maharashtra
33NGPNagpur Junction (9)X  19:00+1919:10+2010m32-727.220314mCRNagpur 440001, Maharashtra
34AJNIAjni (3)X  19:19+2519:20+261m32-724.271310mCRNagpur 440003, Maharashtra
35WRWardha JunctionX  20:24+2220:27+223m12-648.381289mCRWardha 442001, Maharashtra
36PLOPulgaon Junction (3)  20:49+2520:50+261m22-618.867273mCRPulgaon, Maharashtra
37DMNDhamangaon (2)  21:08+2521:09+271m--2-598.866300mCRDhamangaon, Maharashtra
38CNDChandur (2)X  21:24+2621:25+271m--2-582.238331mCRAmravati Distt, Maharashtra
39BDBadnera Junction (4)X  22:10+2322:15+245m12-553.486335mCRBadnera (Amravati) 444701, Maharashtra
40MZRMurtizapur (3)X  22:44+3022:45+311m--2-511.774303mCRMurtajapur, Maharashtra
41AKAkola Junction (7)  23:15+3123:20+315m12-474.593284mCRAkola-444001, Maharashtra
42SEGShegaon (2)  23:44+3523:45+361m22-437.262276mCRShegaon 444203, Maharashtra
43JMJalamb Junction (3)  23:57+3423:58+361m12-424.967259mCRJalamb, Maharashtra
44NNNandura  00:09+3700:10+411m13-412.770267mCRNandura, Maharashtra
45MKUMalkapur (2)  00:34+3900:35+421m23-384.850252mCRMalkapur, Maharashtra
46BSLBhusaval Junction (8)XO  01:35+3401:45+4210m43-334.937208mCRBhusaval 425201, Maharashtra
47JLJalgaon Junction (4)X  02:24+2602:25+301m23-310.851213mCRJalgaon 425001, Maharashtra
48DXGDharangaon  03:00+3903:01+401m13-281.151217mWRDharangaon, Maharashtra
49ANAmalner (1)  03:30+3503:33+353m13-256.273188mWRAmalner, Maharashtra
50SNKSindkheda (1)  04:07+3804:08+391m13-214.645178mWRState Highway 11, Maharashtra
51DDEDondaicha (2)X  04:34+3404:35+361m23-195.249163mWRDondaicha, Maharashtra
52NDBNandurbar (3)  05:17+2805:25+298m13-160.849203mWRNandurbar, Maharashtra
53NWUNavapur (2)  06:36+1906:37+241m--3-102.954124mWRNavapur, Gujarat
54VYAVyara (2)  07:24+1907:25+211m13-61.05690mWRVyara, Gujarat
55MIDMadhi (1)X  07:41+2107:42+221m13-46.15645mWRMadhi, Gujarat
56BIYBardoli (2)X  07:58+2407:59+251m--3-31.23635mWRNear Bardoli Sugar Factory Bardoli, Gujarat
57UDNUdhna Junction (3)XO  08:44+1608:45+191m13-4.01416mWRUdhna 394210, Gujarat
58ST»Surat (4)»X  09:02+1509:12+1610m230.07919mWRSurat 395001, Gujarat
59BHBharuch Junction (5)X  09:57+2409:58+251m3359.37419mWRBharuch, Gujarat
60BRCVadodara Junction (7)X  10:55+2811:00+295m33129.86936mWRVadodara, Gujarat
61ANNDAnand Junction (6)  11:31+2911:32+311m23165.65044mWRAnand, Gujarat
62NDNadiad Junction (4)X  11:54+2611:55+271m--3184.05737mWRNadiad, Gujarat
63MANManinagar (2)X  12:40+2012:41+211m13226.41050mWRAhmadabad, Gujarat
64ADI•Ahmedabad Junction (12)•  13:00+20-63229.6-51mWRAhmedabad, Gujarat
Scroll to Top
Scroll to Bottom